Terminal Aerodrome Forecast
Issued by NWS

Home | Current Version | Previous Version | Text Only | Print | Product List | Glossary On
Versions: 1 2 3 4 5 6 7 8 9 10 11 12 13 14 15 16 17
000
FTUS43 KILX 292300
TAFCMI
TAF
KCMI 292322Z 3000/3024 16008KT P6SM VCTS SCT040CB BKN120
      TEMPO 3003/3005 3SM -TSRA BR OVC025CB
     FM300800 18008KT P6SM BKN050
     FM301700 21012G20KT P6SM VCTS BKN035CB=

USA.gov is the U.S. government's official web portal to all federal, state and local government web resources and services.